Bellflower, MO (63333)

1:49 PM CDT on September 01, 2014 (GMT -0500)
ALSAT Wireless | Change Station
CLOSE
Current Station
Personal Weather Station
Location: Montgomery City, MO
Elevation: 810 ft
Nearby Weather Stations

Elev 810 ft 38.99 °N, 91.55 °W | Updated 3 seconds ago

Partly Cloudy
Partly Cloudy
79.2 °F
Feels Like 82 °F
N
6.0
Wind Variable Wind from SW
Gusts 13.0 mph

Today
High -- | Low -- °F
--% Chance of Precip.
Yesterday
High -- | Low -- °F
Precip. -- in
6:34 AM 7:35 PM
Waxing Crescent, 43% visible
Pressure 29.89 in
Visibility 10.0 miles
Clouds Clear
Heat Index 82 °F
Dew Point 69 °F
Humidity 70%
Rainfall 0.00 in
Snow Depth Not available.
UV 9 out of 12
Pollen 5.90 out of 12
Air Quality Not available.
Flu Activity Not available.
METAR KFYG 011835Z AUTO 30008KT 10SM CLR 25/19 A2989 RMK AO2

More Conditions Fewer Conditions

Pressure 29.89 in
Visibility 10.0 miles
Clouds Clear
Heat Index 82 °F
Dew Point 69 °F
Humidity 70%
Rainfall 0.00 in
Snow Depth Not available.
UV 9 out of 12
Pollen 5.90 out of 12
Air Quality Not available.
Flu Activity Not available.
METAR KFYG 011835Z AUTO 30008KT 10SM CLR 25/19 A2989 RMK AO2

More Conditions Fewer Conditions

10-Day Weather Forecast

Almanac

Astronomy

Sep. 01, 2014 Rise Set
Actual Time 6:34 AM CDT 7:35 PM CDT
Civil Twilight 6:06 AM CDT 8:03 PM CDT
Nautical Twilight 5:34 AM CDT 8:35 PM CDT
Astronomical Twilight 5:00 AM CDT 9:09 PM CDT
Moon 1:16 PM CDT 11:40 PM CDT
Length of Visible Light 13h 56m
Length of Day
13h 01m
Tomorrow will be 2m 27s shorter.
Waxing Crescent, 43% of the Moon is Illuminated
Today
Waxing Crescent
Sep 2
First Quarter
Sep 8
Full
Sep 15
Last Quarter
Sep 24
New

Today's Extremes

State Highs State Lows

Community

WunderPhotos

Upload Photos

1,749,359 photos uploaded!

Nearby

Snow Depth

Station Depth Elevation
No new snow has been reported.

Earthquake Activity

City Distance Mag. Time & Date
No recent earthquake activity has been reported nearby.
Minimum magnitude displayed is 2.5.

Coastal Water Temperatures

Place Temperature
No Stations Reporting

Nearby Weather Stations